Time;durP1;ratioP1;P1;durP2;ratioP2;P2;SDS_P1;SDS_P2;PMS_P1;PMS_P2;Temp;Humidity;BMP_temperature;BMP_pressure;BME280_temperature;BME280_humidity;BME280_pressure;Samples;Min_cycle;Max_cycle;Signal;HPM_P1;HPM_P2
2022/10/15 00:01:12;;;;;;;4.20;2.17;;;16.70;99.90;;;;;;4985263;28;20459;-84
2022/10/15 00:03:59;;;;;;;2.33;2.23;;;16.70;99.90;;;;;;4977928;28;20462;-84
2022/10/15 00:06:52;;;;;;;2.57;2.37;;;16.80;99.90;;;;;;4985965;28;20547;-84
2022/10/15 00:09:33;;;;;;;4.73;2.67;;;16.90;99.90;;;;;;4997982;28;20482;-83
2022/10/15 00:12:17;;;;;;;2.33;2.13;;;16.80;99.90;;;;;;4977629;28;20458;-84
2022/10/15 00:15:11;;;;;;;2.10;2.00;;;16.70;99.90;;;;;;4975095;28;20442;-84
2022/10/15 00:18:00;;;;;;;2.40;2.20;;;16.60;99.90;;;;;;4972383;28;20492;-85
2022/10/15 00:20:46;;;;;;;2.70;2.50;;;16.60;99.90;;;;;;4983776;28;20494;-85
2022/10/15 00:23:15;;;;;;;2.90;2.70;;;16.70;99.90;;;;;;4990725;28;20447;-83
2022/10/15 00:26:09;;;;;;;2.77;2.30;;;16.80;99.90;;;;;;4994457;28;20444;-84
2022/10/15 00:29:04;;;;;;;2.60;2.40;;;16.80;99.90;;;;;;4979660;28;20513;-82
2022/10/15 00:31:51;;;;;;;3.07;2.47;;;16.70;99.90;;;;;;4992829;28;20446;-82
2022/10/15 00:34:24;;;;;;;2.70;2.50;;;16.50;99.90;;;;;;4992599;28;20482;-82
2022/10/15 00:37:16;;;;;;;2.33;2.13;;;16.60;99.90;;;;;;4993958;28;20490;-84
2022/10/15 00:40:19;;;;;;;2.40;2.20;;;16.70;99.90;;;;;;4937401;29;20464;-82
2022/10/15 00:43:11;;;;;;;3.57;3.13;;;16.70;99.90;;;;;;4933890;29;20507;-81
2022/10/15 00:45:59;;;;;;;3.03;2.57;;;16.80;99.90;;;;;;4958976;23;20485;-83
2022/10/15 00:48:52;;;;;;;2.77;2.57;;;16.60;99.90;;;;;;5001781;28;20479;-84
2022/10/15 00:52:07;;;;;;;3.60;2.80;;;16.40;99.90;;;;;;5016863;28;20469;-84
2022/10/15 00:55:12;;;;;;;2.60;2.40;;;16.20;99.90;;;;;;5049994;28;20560;-83
2022/10/15 00:58:26;;;;;;;3.37;3.07;;;16.40;99.90;;;;;;5027033;28;20473;-84
2022/10/15 01:01:11;;;;;;;3.33;3.03;;;16.60;99.90;;;;;;5014772;28;20803;-84
2022/10/15 01:04:11;;;;;;;3.00;2.77;;;16.60;99.90;;;;;;5018365;28;20438;-83
2022/10/15 01:07:12;;;;;;;2.83;2.63;;;16.30;99.90;;;;;;5017444;28;21093;-83
2022/10/15 01:10:22;;;;;;;;;;;;;;;;;;;;;
2022/10/15 01:14:03;;;;;;;2.80;2.60;;;16.10;99.90;;;;;;5010156;28;20438;-83
2022/10/15 01:17:02;;;;;;;3.37;3.07;;;16.20;99.90;;;;;;4959820;28;20465;-83
2022/10/15 01:20:33;;;;;;;3.10;2.87;;;16.40;99.90;;;;;;4943575;29;20473;-82
2022/10/15 01:23:43;;;;;;;3.43;3.03;;;16.30;99.90;;;;;;5033149;28;20465;-84
2022/10/15 01:27:01;;;;;;;3.83;3.30;;;16.30;99.90;;;;;;5023730;28;20474;-82
2022/10/15 01:30:20;;;;;;;3.57;3.00;;;16.20;99.90;;;;;;5016463;28;20561;-84
2022/10/15 01:33:31;;;;;;;2.90;2.70;;;16.00;99.90;;;;;;5017836;28;20499;-84
2022/10/15 01:37:14;;;;;;;5.10;3.00;;;15.90;99.90;;;;;;5015127;28;20482;-84
2022/10/15 01:44:15;;;;;;;3.00;2.70;;;15.80;99.90;;;;;;4952268;28;20466;-82
2022/10/15 01:54:17;;;;;;;4.10;3.30;;;15.70;99.90;;;;;;5010898;28;20466;-82
2022/10/15 02:01:31;;;;;;;;;;;;;;;;;;;;;
2022/10/15 02:05:02;;;;;;;3.10;2.77;;;15.60;99.90;;;;;;5013882;28;20791;-83
2022/10/15 02:12:40;;;;;;;3.30;3.00;;;16.00;99.90;;;;;;4878588;29;20532;-84
2022/10/15 02:16:15;;;;;;;3.70;3.40;;;16.10;99.90;;;;;;5001573;28;20533;-84
2022/10/15 02:19:59;;;;;;;3.43;3.13;;;16.10;99.90;;;;;;5016911;28;20449;-84
2022/10/15 02:30:10;;;;;;;5.60;3.33;;;16.00;99.90;;;;;;4989466;28;20547;-83
2022/10/15 02:37:04;;;;;;;;;;;;;;;;;;;;;
2022/10/15 02:40:26;;;;;;;;;;;;;;;;;;;;;
2022/10/15 02:43:17;;;;;;;4.10;3.80;;;15.70;99.90;;;;;;5003399;28;21017;-84
2022/10/15 02:50:17;;;;;;;5.53;3.90;;;15.70;99.90;;;;;;4958802;28;20488;-83
2022/10/15 02:54:44;;;;;;;3.93;3.43;;;15.70;99.90;;;;;;4920689;28;20575;-83
2022/10/15 03:02:13;;;;;;;4.13;3.83;;;15.90;99.90;;;;;;4845087;29;20474;-83
2022/10/15 03:05:17;;;;;;;4.13;3.73;;;15.90;99.90;;;;;;4821862;29;20452;-83
2022/10/15 03:12:01;;;;;;;4.60;3.33;;;16.00;99.90;;;;;;5016665;28;20453;-82
2022/10/15 03:15:23;;;;;;;3.83;3.53;;;15.90;99.90;;;;;;5021740;28;20430;-81
2022/10/15 03:25:43;;;;;;;4.37;3.97;;;16.20;99.90;;;;;;5027298;28;20447;-84
2022/10/15 03:28:35;;;;;;;3.50;3.20;;;16.00;99.90;;;;;;5013015;28;20551;-84
2022/10/15 03:31:12;;;;;;;4.20;3.80;;;16.20;99.90;;;;;;5023730;28;20550;-84
2022/10/15 03:34:13;;;;;;;3.80;3.50;;;16.30;99.90;;;;;;5019076;28;20450;-83
2022/10/15 03:37:37;;;;;;;;;;;;;;;;;;;;;
2022/10/15 03:40:34;;;;;;;3.80;3.50;;;15.80;99.90;;;;;;4936043;28;20447;-83
2022/10/15 03:43:30;;;;;;;4.80;4.40;;;15.80;99.90;;;;;;5035739;28;20456;-83
2022/10/15 03:46:33;;;;;;;4.60;3.80;;;15.70;99.90;;;;;;4984057;28;20470;-83
2022/10/15 03:49:22;;;;;;;3.77;3.47;;;16.00;99.90;;;;;;5009867;28;20505;-83
2022/10/15 03:52:20;;;;;;;;;;;;;;;;;;;;;
2022/10/15 03:55:16;;;;;;;3.80;3.40;;;16.40;99.90;;;;;;4969394;28;20499;-83
2022/10/15 03:58:00;;;;;;;4.53;4.07;;;16.20;99.90;;;;;;5008944;28;20477;-84
2022/10/15 04:01:16;;;;;;;4.00;3.60;;;16.20;99.90;;;;;;5026850;28;21138;-83
2022/10/15 04:04:28;;;;;;;;;;;;;;;;;;;;;
2022/10/15 04:10:12;;;;;;;3.90;3.60;;;16.30;99.90;;;;;;5010499;28;20561;-83
2022/10/15 04:13:04;;;;;;;4.90;4.50;;;16.40;99.90;;;;;;5019621;28;20511;-82
2022/10/15 04:16:40;;;;;;;3.80;3.50;;;16.30;99.90;;;;;;5032096;28;20441;-84
2022/10/15 04:20:13;;;;;;;4.03;3.73;;;16.30;99.90;;;;;;5004238;28;20452;-81
2022/10/15 04:27:14;;;;;;;;;;;;;;;;;;;;;
2022/10/15 04:30:10;;;;;;;3.67;3.37;;;16.10;99.90;;;;;;4979488;28;20483;-80
2022/10/15 04:33:02;;;;;;;4.27;3.87;;;16.00;99.90;;;;;;4964012;28;20444;-83
2022/10/15 04:36:39;;;;;;;;;;;;;;;;;;;;;
2022/10/15 04:40:04;;;;;;;4.13;3.83;;;15.80;99.90;;;;;;4961936;29;20442;-82
2022/10/15 04:42:51;;;;;;;4.47;4.17;;;15.80;99.90;;;;;;4913167;29;20473;-82
2022/10/15 04:46:21;;;;;;;4.93;3.87;;;15.90;99.90;;;;;;4938088;28;20443;-82
2022/10/15 04:49:15;;;;;;;4.37;3.97;;;15.80;99.90;;;;;;4901460;29;20577;-83
2022/10/15 04:52:01;;;;;;;5.30;4.80;;;15.70;99.90;;;;;;4942993;29;20445;-83
2022/10/15 04:58:58;;;;;;;4.50;4.10;;;15.60;99.90;;;;;;4934985;28;20532;-83
2022/10/15 05:01:42;;;;;;;4.20;3.80;;;15.60;99.90;;;;;;4961908;28;20479;-83
2022/10/15 05:05:04;;;;;;;4.97;4.37;;;15.70;99.90;;;;;;4997167;28;20455;-83
2022/10/15 05:07:42;;;;;;;5.37;4.43;;;16.00;99.90;;;;;;5009468;28;20530;-83
2022/10/15 05:10:30;;;;;;;5.30;4.80;;;16.10;99.90;;;;;;5032237;28;20500;-83
2022/10/15 05:13:30;;;;;;;5.43;4.93;;;16.00;99.90;;;;;;5034918;28;20450;-83
2022/10/15 05:16:31;;;;;;;4.90;4.50;;;16.30;99.90;;;;;;5049984;28;20473;-83
2022/10/15 05:19:23;;;;;;;;;;;;;;;;;;;;;
2022/10/15 05:22:16;;;;;;;5.33;4.83;;;16.40;99.90;;;;;;5024548;28;20438;-82
2022/10/15 05:25:42;;;;;;;6.83;5.17;;;16.40;99.90;;;;;;5020568;28;20535;-82
2022/10/15 05:32:08;;;;;;;5.93;4.87;;;16.30;99.90;;;;;;4954941;28;20457;-82
2022/10/15 05:38:32;;;;;;;6.30;5.70;;;16.30;99.90;;;;;;5002296;28;20536;-81
2022/10/15 05:41:15;;;;;;;6.17;5.57;;;16.20;99.90;;;;;;5012773;28;20553;-82
2022/10/15 05:44:37;;;;;;;6.50;5.80;;;16.20;99.90;;;;;;5010450;28;20469;-82
2022/10/15 05:47:38;;;;;;;5.83;5.33;;;16.20;99.90;;;;;;5007755;28;21061;-81
2022/10/15 05:50:44;;;;;;;;;;;;;;;;;;;;;
2022/10/15 05:53:33;;;;;;;5.40;4.90;;;16.10;99.90;;;;;;4994664;28;20877;-82
2022/10/15 05:56:17;;;;;;;6.07;4.83;;;16.10;99.90;;;;;;5016187;28;20481;-82
2022/10/15 05:59:20;;;;;;;4.83;4.43;;;16.10;99.90;;;;;;5011460;28;20462;-81
2022/10/15 06:02:46;;;;;;;5.03;4.60;;;16.10;99.90;;;;;;5020127;28;20470;-83
2022/10/15 06:09:00;;;;;;;4.53;4.13;;;15.90;99.90;;;;;;5024730;28;20465;-80
2022/10/15 06:15:38;;;;;;;5.70;4.23;;;15.90;99.90;;;;;;5020836;28;20445;-81
2022/10/15 06:18:58;;;;;;;4.17;3.87;;;15.90;99.90;;;;;;4949900;28;20480;-83
2022/10/15 06:22:01;;;;;;;3.90;3.00;;;15.80;99.90;;;;;;4949832;28;20469;-82
2022/10/15 06:24:28;;;;;;;4.27;3.87;;;15.80;99.90;;;;;;4952866;28;20468;-82
2022/10/15 06:30:13;;;;;;;3.60;3.30;;;15.70;99.90;;;;;;4939646;28;20507;-83
2022/10/15 06:33:30;;;;;;;3.60;3.30;;;15.50;99.90;;;;;;4935200;29;20457;-83
2022/10/15 06:36:25;;;;;;;;;;;;;;;;;;;;;
2022/10/15 06:39:15;;;;;;;4.30;3.10;;;15.70;99.90;;;;;;4920830;29;20454;-81
2022/10/15 06:42:40;;;;;;;3.33;2.93;;;15.60;99.90;;;;;;4918771;29;20451;-82
2022/10/15 06:45:46;;;;;;;4.20;3.70;;;15.60;99.90;;;;;;4906557;29;20469;-83
2022/10/15 06:48:56;;;;;;;4.47;4.03;;;15.90;99.90;;;;;;4928980;29;20431;-82
2022/10/15 06:52:19;;;;;;;3.40;3.10;;;16.00;99.90;;;;;;4916190;29;20458;-82
2022/10/15 06:55:45;;;;;;;;;;;;;;;;;;;;;
2022/10/15 06:59:05;;;;;;;3.50;2.70;;;16.20;99.90;;;;;;4935162;29;20478;-82
2022/10/15 07:02:43;;;;;;;;;;;;;;;;;;;;;
2022/10/15 07:08:09;;;;;;;3.27;2.93;;;16.30;99.90;;;;;;5001325;23;20493;-83
2022/10/15 07:11:10;;;;;;;3.27;3.00;;;16.30;99.90;;;;;;5004412;28;20510;-83
2022/10/15 07:13:40;;;;;;;3.70;2.70;;;16.40;99.90;;;;;;4987624;28;20448;-84
2022/10/15 07:16:21;;;;;;;3.00;2.70;;;16.30;99.90;;;;;;4959899;28;20497;-84
2022/10/15 07:19:14;;;;;;;2.60;2.40;;;16.40;99.90;;;;;;4966964;28;20456;-82
2022/10/15 07:21:55;;;;;;;5.10;2.93;;;16.30;99.90;;;;;;4988182;28;20483;-83
2022/10/15 07:25:04;;;;;;;2.70;1.90;;;16.30;99.90;;;;;;4973727;28;20480;-84
2022/10/15 07:28:29;;;;;;;5.77;2.30;;;16.30;99.90;;;;;;4986653;28;20480;-84
2022/10/15 07:31:36;;;;;;;2.50;2.30;;;16.30;99.90;;;;;;4888267;29;20583;-84
2022/10/15 07:34:44;;;;;;;3.17;2.47;;;16.20;99.90;;;;;;4920112;28;20488;-82
2022/10/15 07:42:11;;;;;;;3.80;2.60;;;16.20;99.90;;;;;;4895314;29;20420;-82
2022/10/15 07:45:13;;;;;;;2.70;2.50;;;16.20;99.90;;;;;;4961203;28;20497;-83
2022/10/15 07:48:12;;;;;;;3.80;3.10;;;16.30;99.90;;;;;;4969474;28;20582;-82
2022/10/15 07:51:19;;;;;;;3.50;3.20;;;16.60;99.90;;;;;;4980148;28;20490;-82
2022/10/15 07:54:08;;;;;;;2.87;2.67;;;16.70;99.90;;;;;;4885454;29;20490;-82
2022/10/15 08:01:17;;;;;;;2.83;2.60;;;17.00;99.90;;;;;;4886404;29;20461;-82
2022/10/15 08:04:16;;;;;;;2.30;2.10;;;16.90;99.90;;;;;;4841326;29;20948;-82
2022/10/15 08:09:50;;;;;;;2.07;1.97;;;16.80;99.90;;;;;;3830937;26;20516;-83
2022/10/15 08:18:19;;;;;;;3.00;2.33;;;16.70;99.90;;;;;;5013423;23;20499;-83
2022/10/15 08:21:03;;;;;;;2.13;2.00;;;16.70;99.90;;;;;;5001317;28;20461;-84
2022/10/15 08:28:23;;;;;;;;;;;;;;;;;;;;;
2022/10/15 08:31:51;;;;;;;;;;;;;;;;;;;;;
2022/10/15 08:34:51;;;;;;;4.07;2.20;;;17.00;99.90;;;;;;4948294;28;20445;-83
2022/10/15 08:38:04;;;;;;;2.73;1.87;;;16.80;99.90;;;;;;4948735;28;20489;-82
2022/10/15 08:48:32;;;;;;;;;;;;;;;;;;;;;
2022/10/15 08:55:00;;;;;;;2.10;1.90;;;17.30;99.90;;;;;;4897978;29;20554;-84
2022/10/15 08:58:43;;;;;;;;;;;;;;;;;;;;;
2022/10/15 09:02:29;;;;;;;2.07;1.70;;;17.50;99.90;;;;;;4896446;29;20529;-83
2022/10/15 09:11:47;;;;;;;1.20;1.17;;;17.60;99.90;;;;;;4975354;28;20571;-83
2022/10/15 09:14:57;;;;;;;1.43;1.27;;;17.60;99.90;;;;;;4966071;28;20455;-82
2022/10/15 09:18:25;;;;;;;1.93;1.40;;;17.60;99.90;;;;;;4966702;28;20510;-82
2022/10/15 09:26:01;;;;;;;;;;;;;;;;;;;;;
2022/10/15 09:29:31;;;;;;;2.30;1.37;;;17.70;99.90;;;;;;4968529;28;20460;-80
2022/10/15 09:32:30;;;;;;;1.40;0.90;;;17.70;99.90;;;;;;4978308;28;20476;-82
2022/10/15 09:43:10;;;;;;;;;;;;;;;;;;;;;
2022/10/15 09:46:02;;;;;;;1.20;1.10;;;17.90;99.90;;;;;;4970812;28;20538;-82
2022/10/15 09:49:46;;;;;;;0.80;0.80;;;17.90;99.90;;;;;;4920973;29;20462;-81
2022/10/15 09:57:07;;;;;;;0.90;0.90;;;18.40;99.90;;;;;;4922913;29;20458;-82
2022/10/15 10:07:57;;;;;;;0.87;0.83;;;18.30;99.90;;;;;;4930574;28;20483;-83
2022/10/15 10:11:44;;;;;;;1.87;1.13;;;18.20;99.90;;;;;;4948445;28;20500;-84
2022/10/15 10:15:10;;;;;;;;;;;;;;;;;;;;;
2022/10/15 10:18:37;;;;;;;1.00;0.90;;;18.30;99.90;;;;;;4963629;28;20480;-84
2022/10/15 10:22:03;;;;;;;0.80;0.70;;;18.50;99.90;;;;;;4947169;28;20457;-84
2022/10/15 10:25:33;;;;;;;0.80;0.80;;;18.40;99.90;;;;;;4950755;29;20513;-82
2022/10/15 10:29:03;;;;;;;;;;;;;;;;;;;;;
2022/10/15 10:32:50;;;;;;;;;;;;;;;;;;;;;
2022/10/15 10:36:30;;;;;;;0.80;0.70;;;19.50;99.90;;;;;;4894054;29;20553;-82
2022/10/15 10:39:50;;;;;;;0.80;0.80;;;19.40;99.90;;;;;;4918029;29;20964;-84
2022/10/15 10:46:19;;;;;;;0.70;0.70;;;19.10;99.90;;;;;;4854392;29;20472;-84
2022/10/15 10:49:09;;;;;;;0.83;0.83;;;18.90;99.90;;;;;;4889670;29;20436;-81
2022/10/15 10:51:51;;;;;;;1.40;1.27;;;18.90;99.90;;;;;;4869965;29;20502;-82
2022/10/15 10:54:40;;;;;;;1.77;1.00;;;18.70;99.90;;;;;;4865485;29;20554;-84
2022/10/15 10:58:00;;;;;;;0.90;0.90;;;18.80;99.90;;;;;;4890100;29;20576;-84
2022/10/15 11:04:50;;;;;;;1.17;1.07;;;19.20;99.90;;;;;;4891277;29;20458;-84
2022/10/15 11:08:12;;;;;;;0.93;0.60;;;19.20;99.90;;;;;;4873877;29;20556;-83
2022/10/15 11:15:11;;;;;;;0.90;0.80;;;19.50;99.90;;;;;;4895335;29;21031;-83
2022/10/15 11:22:21;;;;;;;0.67;0.60;;;19.50;99.90;;;;;;4991259;28;20437;-84
2022/10/15 11:40:02;;;;;;;0.77;0.77;;;20.40;99.90;;;;;;5049113;22;21026;-83
2022/10/15 11:43:19;;;;;;;0.70;0.40;;;20.40;99.90;;;;;;4943334;29;20491;-85
2022/10/15 11:46:21;;;;;;;0.60;0.50;;;20.30;99.90;;;;;;4984484;23;20764;-82
2022/10/15 11:49:40;;;;;;;0.50;0.50;;;20.20;99.90;;;;;;5012603;28;20461;-83
2022/10/15 12:04:55;;;;;;;;;;;;;;;;;;;;;
2022/10/15 12:08:38;;;;;;;0.70;0.57;;;20.60;99.90;;;;;;5038184;23;20488;-83
2022/10/15 12:16:00;;;;;;;0.50;0.50;;;20.50;99.90;;;;;;4980810;28;21019;-83
2022/10/15 12:22:29;;;;;;;1.20;0.60;;;20.60;99.90;;;;;;5018795;28;20546;-83
2022/10/15 12:26:32;;;;;;;0.40;0.40;;;20.70;99.90;;;;;;5025749;28;20511;-83
2022/10/15 12:37:44;;;;;;;0.97;0.67;;;21.00;99.90;;;;;;4984701;22;20494;-83
2022/10/15 12:44:38;;;;;;;0.60;0.60;;;20.90;99.90;;;;;;5023267;28;20506;-83
2022/10/15 13:02:58;;;;;;;;;;;;;;;;;;;;;
2022/10/15 13:06:19;;;;;;;1.17;0.50;;;21.40;99.90;;;;;;5051346;28;20521;-82
2022/10/15 13:25:52;;;;;;;2.40;0.50;;;20.60;99.90;;;;;;4945520;29;20493;-85
2022/10/15 13:37:31;;;;;;;2.80;0.70;;;21.40;99.10;;;;;;5002312;28;20585;-81
2022/10/15 13:41:13;;;;;;;0.63;0.50;;;21.60;99.40;;;;;;4999468;28;20874;-84
2022/10/15 13:45:04;;;;;;;0.40;0.40;;;21.80;98.40;;;;;;4925109;29;20446;-83
2022/10/15 13:48:49;;;;;;;1.20;0.53;;;21.60;99.10;;;;;;4890416;29;20585;-83
2022/10/15 13:53:23;;;;;;;;;;;;;;;;;;;;;
2022/10/15 13:56:23;;;;;;;;;;;;;;;;;;;;;
2022/10/15 13:59:52;;;;;;;0.70;0.70;;;21.10;99.90;;;;;;4931748;29;20425;-82
2022/10/15 14:03:34;;;;;;;0.80;0.80;;;21.30;99.90;;;;;;4936271;29;20475;-83
2022/10/15 14:06:38;;;;;;;0.50;0.50;;;21.60;99.50;;;;;;4919986;29;20472;-82
2022/10/15 14:10:01;;;;;;;1.40;0.43;;;21.50;99.90;;;;;;4940201;29;20457;-84
2022/10/15 14:37:44;;;;;;;;;;;;;;;;;;;;;
2022/10/15 17:19:35;;;;;;;4.37;1.23;;;18.10;99.90;;;;;;1198758;26;20577;-83
2022/10/15 17:29:35;;;;;;;1.67;1.13;;;18.10;99.90;;;;;;5015115;28;20482;-84
2022/10/15 17:33:24;;;;;;;1.93;1.10;;;18.20;99.90;;;;;;4995090;28;20485;-83
2022/10/15 18:09:05;;;;;;;;;;;;;;;;;;;;;
2022/10/15 18:43:12;;;;;;;2.37;1.80;;;18.00;99.90;;;;;;5032467;28;20429;-83
2022/10/15 18:47:05;;;;;;;2.57;2.13;;;17.90;99.90;;;;;;4992382;28;20435;-83
2022/10/15 18:50:43;;;;;;;;;;;;;;;;;;;;;
2022/10/15 19:02:55;;;;;;;3.23;2.10;;;17.80;99.90;;;;;;4798284;29;20544;-83
2022/10/15 19:10:36;;;;;;;2.40;2.20;;;17.70;99.90;;;;;;4742440;30;20565;-83
2022/10/15 19:20:29;;;;;;;;;;;;;;;;;;;;;
2022/10/15 19:24:11;;;;;;;;;;;;;;;;;;;;;
2022/10/15 19:27:33;;;;;;;6.80;3.40;;;17.40;99.90;;;;;;5019593;28;20534;-83
2022/10/15 19:38:53;;;;;;;2.70;2.50;;;17.50;99.90;;;;;;4927701;29;20473;-84
2022/10/15 20:00:08;;;;;;;;;;;;;;;;;;;;;
2022/10/15 20:04:09;;;;;;;5.00;2.40;;;17.20;99.90;;;;;;4939523;29;20554;-83
2022/10/15 20:08:49;;;;;;;;;;;;;;;;;;;;;
2022/10/15 20:23:47;;;;;;;3.90;2.60;;;17.20;99.90;;;;;;4782383;29;20439;-83
2022/10/15 20:31:12;;;;;;;3.00;2.70;;;17.30;99.90;;;;;;4754138;30;20452;-82
2022/10/15 21:13:30;;;;;;;;;;;;;;;;;;;;;
2022/10/15 21:20:47;;;;;;;2.77;2.57;;;16.80;99.90;;;;;;4936692;29;20500;-83
2022/10/15 21:24:31;;;;;;;;;;;;;;;;;;;;;
2022/10/15 21:30:36;;;;;;;5.37;4.37;;;17.00;99.90;;;;;;5102287;22;20471;-82
2022/10/15 21:34:08;;;;;;;;;;;;;;;;;;;;;
2022/10/15 21:38:14;;;;;;;;;;;;;;;;;;;;;
2022/10/15 21:42:01;;;;;;;5.50;2.50;;;17.20;99.90;;;;;;4948476;28;20872;-83
2022/10/15 21:46:03;;;;;;;3.27;2.97;;;17.00;99.90;;;;;;4981720;28;20429;-84
2022/10/15 21:49:47;;;;;;;;;;;;;;;;;;;;;
2022/10/15 22:21:36;;;;;;;;;;;;;;;;;;;;;
2022/10/15 22:33:01;;;;;;;2.50;2.30;;;16.60;99.90;;;;;;4962393;28;21002;-81
2022/10/15 22:37:00;;;;;;;5.13;3.80;;;16.80;99.90;;;;;;4957554;28;20444;-84
2022/10/15 22:40:21;;;;;;;;;;;;;;;;;;;;;
2022/10/15 22:47:52;;;;;;;;;;;;;;;;;;;;;
2022/10/15 22:51:33;;;;;;;2.00;1.90;;;16.50;99.90;;;;;;4874514;29;20538;-82
2022/10/15 22:58:42;;;;;;;2.67;2.47;;;16.50;99.90;;;;;;4844795;29;20491;-83
2022/10/15 23:02:05;;;;;;;2.27;2.03;;;16.90;99.90;;;;;;4801312;29;20834;-83
2022/10/15 23:05:50;;;;;;;3.50;3.20;;;16.90;99.90;;;;;;4774208;30;21113;-83
2022/10/15 23:09:16;;;;;;;3.00;2.37;;;17.00;99.90;;;;;;4771018;30;20462;-83
2022/10/15 23:16:02;;;;;;;;;;;;;;;;;;;;;
2022/10/15 23:26:40;;;;;;;2.43;2.23;;;16.90;99.90;;;;;;4821562;29;20466;-84
2022/10/15 23:29:48;;;;;;;2.40;2.30;;;16.90;99.90;;;;;;4789776;29;20436;-83
2022/10/15 23:32:47;;;;;;;5.10;2.67;;;16.90;99.90;;;;;;4792133;29;20477;-82
2022/10/15 23:39:22;;;;;;;2.50;2.30;;;16.90;99.90;;;;;;4851080;29;20459;-83
2022/10/15 23:42:34;;;;;;;1.97;1.87;;;16.80;99.90;;;;;;4897519;29;20466;-82
2022/10/15 23:45:26;;;;;;;3.07;2.30;;;16.80;99.90;;;;;;4909081;29;20484;-80
2022/10/15 23:48:20;;;;;;;2.33;2.23;;;16.90;99.90;;;;;;4922915;29;20588;-83
2022/10/15 23:54:40;;;;;;;3.33;2.80;;;17.00;99.90;;;;;;4939686;29;20454;-82
2022/10/15 23:57:27;;;;;;;2.03;1.83;;;16.90;99.90;;;;;;4932557;29;20462;-84
